Terminal Aerodrome Forecast
Issued by NWS

Home | Current Version | Previous Version | Text Only | Print | Product List | Glossary On
Versions: 1 2 3 4 5 6 7 8 9 10 11 12 13 14
618
FTUS45 KTFX 210535
TAFHLN
TAF
KHLN 210535Z 2106/2206 26020G30KT P6SM SCT080
     FM211000 24012KT P6SM SCT150
     FM220400 21009KT P6SM BKN060 BKN090=

USA.gov is the U.S. government's official web portal to all federal, state and local government web resources and services.